createdAt,value
2022-11-15T00:02:09.024Z,7.63
2022-11-15T00:04:40.826Z,7.77
2022-11-15T00:07:22.370Z,11.50
2022-11-15T00:10:04.684Z,11.57
2022-11-15T00:12:36.599Z,10.40
2022-11-15T00:15:09.085Z,7.70
2022-11-15T00:17:40.783Z,6.87
2022-11-15T00:20:12.521Z,7.97
2022-11-15T00:22:44.250Z,7.50
2022-11-15T00:25:15.978Z,6.60
2022-11-15T00:27:47.759Z,9.30
2022-11-15T00:30:19.474Z,5.73
2022-11-15T00:32:51.522Z,5.70
2022-11-15T00:35:23.646Z,6.63
2022-11-15T00:37:55.370Z,9.73
2022-11-15T00:40:27.377Z,6.10
2022-11-15T00:42:59.769Z,5.57
2022-11-15T00:45:31.470Z,7.13
2022-11-15T00:48:03.402Z,7.53
2022-11-15T00:50:35.173Z,6.17
2022-11-15T00:53:06.813Z,5.83
2022-11-15T00:55:38.625Z,9.10
2022-11-15T00:58:10.702Z,6.00
2022-11-15T01:00:42.387Z,5.95
2022-11-15T01:03:14.174Z,5.90
2022-11-15T01:05:47.638Z,5.97
2022-11-15T01:08:19.409Z,7.13
2022-11-15T01:10:51.213Z,5.63
2022-11-15T01:13:23.011Z,5.10
2022-11-15T01:15:54.676Z,8.97
2022-11-15T01:18:26.406Z,5.10
2022-11-15T01:20:58.105Z,5.00
2022-11-15T01:23:30.283Z,9.37
2022-11-15T01:26:04.566Z,6.50
2022-11-15T01:28:38.244Z,5.67
2022-11-15T01:31:18.070Z,7.10
2022-11-15T01:33:51.278Z,4.13
2022-11-15T01:36:23.796Z,5.00
2022-11-15T01:38:57.709Z,4.70
2022-11-15T01:41:34.364Z,6.33
2022-11-15T01:44:39.857Z,4.50
2022-11-15T01:47:19.867Z,5.40
2022-11-15T01:50:14.272Z,4.77
2022-11-15T01:52:46.477Z,4.80
2022-11-15T01:55:27.197Z,5.40
2022-11-15T01:58:02.093Z,5.57
2022-11-15T02:00:34.275Z,5.30
2022-11-15T02:03:06.085Z,4.40
2022-11-15T02:05:38.385Z,5.47
2022-11-15T02:08:20.687Z,4.33
2022-11-15T02:10:52.460Z,5.10
2022-11-15T02:13:24.469Z,7.30
2022-11-15T02:16:23.614Z,5.63
2022-11-15T02:19:29.996Z,5.68
2022-11-15T02:22:37.211Z,5.00
2022-11-15T02:25:23.649Z,5.63
2022-11-15T02:28:04.734Z,5.40
2022-11-15T02:30:36.459Z,5.77
2022-11-15T02:33:23.172Z,5.43
2022-11-15T02:36:02.382Z,5.50
2022-11-15T02:38:46.773Z,5.63
2022-11-15T02:41:25.047Z,6.03
2022-11-15T02:44:13.842Z,5.57
2022-11-15T02:47:13.850Z,8.00
2022-11-15T02:49:51.017Z,5.73
2022-11-15T02:52:27.218Z,4.30
2022-11-15T02:55:01.748Z,5.10
2022-11-15T02:57:33.507Z,6.17
2022-11-15T03:00:18.077Z,7.17
2022-11-15T03:02:58.434Z,7.70
2022-11-15T03:05:36.236Z,4.60
2022-11-15T03:08:16.837Z,6.50
2022-11-15T03:10:57.398Z,4.60
2022-11-15T03:13:56.202Z,4.90
2022-11-15T03:16:30.954Z,4.70
2022-11-15T03:19:33.545Z,5.10
2022-11-15T03:22:09.500Z,5.47
2022-11-15T03:24:44.970Z,5.67
2022-11-15T03:27:22.390Z,5.00
2022-11-15T03:29:59.742Z,4.13
2022-11-15T03:32:37.506Z,5.13
2022-11-15T03:35:31.473Z,5.77
2022-11-15T03:38:26.713Z,4.90
2022-11-15T03:41:16.766Z,5.23
2022-11-15T03:43:58.277Z,5.35
2022-11-15T03:46:36.624Z,6.00
2022-11-15T03:49:25.426Z,6.77
2022-11-15T03:52:01.054Z,5.77
2022-11-15T03:54:32.953Z,6.80
2022-11-15T03:57:04.793Z,5.03
2022-11-15T03:59:36.539Z,5.83
2022-11-15T04:02:08.201Z,4.10
2022-11-15T04:04:40.929Z,5.67
2022-11-15T04:07:12.783Z,5.40
2022-11-15T04:10:03.779Z,5.93
2022-11-15T04:12:37.892Z,4.87
2022-11-15T04:15:14.978Z,4.50
2022-11-15T04:17:57.745Z,5.87
2022-11-15T04:20:50.064Z,5.70
2022-11-15T04:23:41.990Z,5.07
2022-11-15T04:26:17.423Z,5.30
2022-11-15T04:29:08.065Z,4.83
2022-11-15T04:31:39.870Z,4.13
2022-11-15T04:34:11.536Z,4.40
2022-11-15T04:37:02.697Z,4.45
2022-11-15T04:39:34.467Z,5.60
2022-11-15T04:42:06.335Z,4.97
2022-11-15T04:44:38.128Z,5.40
2022-11-15T04:47:09.893Z,4.60
2022-11-15T04:49:41.642Z,4.67
2022-11-15T04:52:13.446Z,5.20
2022-11-15T04:54:45.734Z,4.50
2022-11-15T04:57:17.545Z,5.53
2022-11-15T04:59:49.318Z,3.57
2022-11-15T05:02:21.051Z,4.23
2022-11-15T05:04:52.811Z,5.47
2022-11-15T05:07:24.598Z,4.80
2022-11-15T05:09:56.270Z,4.90
2022-11-15T05:12:28.017Z,5.17
2022-11-15T05:14:59.755Z,8.60
2022-11-15T05:17:31.631Z,9.83
2022-11-15T05:20:03.764Z,9.43
2022-11-15T05:22:35.569Z,9.20
2022-11-15T05:25:08.171Z,9.40
2022-11-15T05:27:39.878Z,7.60
2022-11-15T05:30:11.872Z,5.67
2022-11-15T05:32:44.764Z,6.07
2022-11-15T05:35:29.412Z,6.33
2022-11-15T05:38:01.416Z,5.03
2022-11-15T05:40:34.391Z,4.60
2022-11-15T05:43:06.905Z,5.60
2022-11-15T05:45:38.657Z,4.80
2022-11-15T05:48:11.694Z,6.00
2022-11-15T05:50:46.177Z,6.37
2022-11-15T05:53:20.574Z,5.15
2022-11-15T05:55:52.779Z,14.93
2022-11-15T05:58:24.857Z,5.20
2022-11-15T06:00:56.667Z,6.93
2022-11-15T06:03:28.496Z,9.93
2022-11-15T06:06:00.425Z,6.10
2022-11-15T06:08:32.161Z,10.40
2022-11-15T06:11:06.057Z,13.97
2022-11-15T06:13:39.549Z,16.03
2022-11-15T06:16:12.492Z,14.20
2022-11-15T06:18:44.595Z,16.27
2022-11-15T06:21:16.321Z,10.63
2022-11-15T06:23:48.393Z,15.07
2022-11-15T06:26:20.267Z,13.00
2022-11-15T06:28:51.960Z,12.03
2022-11-15T06:31:23.785Z,11.80
2022-11-15T06:33:55.509Z,10.73
2022-11-15T06:36:27.339Z,28.17
2022-11-15T06:38:59.032Z,11.63
2022-11-15T06:41:30.934Z,10.43
2022-11-15T06:44:03.280Z,11.20
2022-11-15T06:46:35.067Z,12.15
2022-11-15T06:49:09.774Z,13.40
2022-11-15T06:51:41.803Z,13.20
2022-11-15T06:54:13.842Z,16.87
2022-11-15T06:56:45.784Z,13.07
2022-11-15T06:59:18.079Z,11.23
2022-11-15T07:01:50.711Z,12.40
2022-11-15T07:04:22.475Z,11.63
2022-11-15T07:06:54.327Z,15.13
2022-11-15T07:09:27.098Z,20.40
2022-11-15T07:12:01.032Z,21.53
2022-11-15T07:14:36.548Z,23.43
2022-11-15T07:17:08.227Z,21.37
2022-11-15T07:19:40.046Z,19.40
2022-11-15T07:22:11.704Z,17.80
2022-11-15T07:24:43.540Z,12.93
2022-11-15T07:27:15.797Z,17.20
2022-11-15T07:29:47.590Z,11.60
2022-11-15T07:32:19.383Z,10.43
2022-11-15T07:34:51.083Z,9.40
2022-11-15T07:37:23.398Z,6.97
2022-11-15T07:39:55.147Z,7.80
2022-11-15T07:42:45.368Z,7.17
2022-11-15T07:45:17.549Z,8.53
2022-11-15T07:47:53.065Z,7.63
2022-11-15T07:50:25.866Z,7.50
2022-11-15T07:52:59.365Z,8.23
2022-11-15T07:55:31.167Z,7.40
2022-11-15T07:58:05.132Z,6.97
2022-11-15T08:00:38.004Z,6.63
2022-11-15T08:03:12.213Z,7.47
2022-11-15T08:05:50.811Z,5.10
2022-11-15T08:08:24.602Z,5.47
2022-11-15T08:10:59.199Z,5.17
2022-11-15T08:13:31.272Z,4.60
2022-11-15T08:16:08.220Z,4.80
2022-11-15T08:18:39.934Z,4.23
2022-11-15T08:21:20.392Z,4.33
2022-11-15T08:23:52.722Z,7.47
2022-11-15T08:26:25.861Z,5.37
2022-11-15T08:28:58.120Z,8.70
2022-11-15T08:31:30.630Z,4.90
2022-11-15T08:34:03.309Z,4.90
2022-11-15T08:36:44.576Z,4.40
2022-11-15T08:39:17.881Z,4.23
2022-11-15T08:41:49.671Z,3.90
2022-11-15T08:44:21.389Z,4.80
2022-11-15T08:46:53.130Z,4.03
2022-11-15T08:49:24.843Z,5.93
2022-11-15T08:51:56.758Z,4.27
2022-11-15T08:54:28.744Z,4.57
2022-11-15T08:57:00.494Z,5.10
2022-11-15T08:59:32.411Z,4.67
2022-11-15T09:02:05.237Z,5.47
2022-11-15T09:04:38.723Z,5.13
2022-11-15T09:07:11.767Z,6.27
2022-11-15T09:09:43.563Z,5.30
2022-11-15T09:12:16.146Z,5.50
2022-11-15T09:14:47.882Z,5.87
2022-11-15T09:17:24.450Z,5.73
2022-11-15T09:19:56.758Z,5.73
2022-11-15T09:22:29.556Z,5.57
2022-11-15T09:25:01.977Z,5.10
2022-11-15T09:27:34.711Z,4.38
2022-11-15T09:30:07.107Z,6.20
2022-11-15T09:32:39.554Z,4.73
2022-11-15T09:35:12.716Z,4.60
2022-11-15T09:37:44.743Z,5.30
2022-11-15T09:40:18.425Z,7.10
2022-11-15T09:43:03.932Z,5.47
2022-11-15T09:46:08.707Z,6.40
2022-11-15T09:48:49.442Z,4.40
2022-11-15T09:51:30.218Z,6.20
2022-11-15T09:57:15.728Z,7.20
2022-11-15T09:59:56.990Z,4.90
2022-11-15T10:02:44.345Z,4.67
2022-11-15T10:05:24.466Z,5.67
2022-11-15T10:08:14.866Z,5.10
2022-11-15T10:11:00.594Z,4.43
2022-11-15T10:13:46.168Z,5.70
2022-11-15T10:16:33.518Z,4.43
2022-11-15T10:19:33.880Z,7.20
2022-11-15T10:22:25.390Z,4.33
2022-11-15T10:25:12.389Z,4.37
2022-11-15T10:27:48.696Z,4.03
2022-11-15T10:30:21.061Z,4.67
2022-11-15T10:32:53.199Z,5.53
2022-11-15T10:35:28.490Z,5.80
2022-11-15T10:38:09.266Z,4.83
2022-11-15T10:40:42.513Z,3.87
2022-11-15T10:43:19.705Z,4.43
2022-11-15T10:45:53.786Z,4.63
2022-11-15T10:48:26.310Z,5.20
2022-11-15T10:50:58.173Z,5.57
2022-11-15T10:53:39.822Z,6.00
2022-11-15T10:56:16.656Z,5.67
2022-11-15T10:58:55.359Z,8.10
2022-11-15T11:01:30.458Z,7.90
2022-11-15T11:04:07.746Z,5.37
2022-11-15T11:07:00.120Z,5.10
2022-11-15T11:09:39.291Z,3.73
2022-11-15T11:12:15.555Z,3.70
2022-11-15T11:14:47.310Z,3.50
2022-11-15T11:17:34.180Z,3.63
2022-11-15T11:20:37.764Z,4.07
2022-11-15T11:23:57.046Z,4.87
2022-11-15T11:27:06.689Z,3.03
2022-11-15T11:30:19.946Z,6.30
2022-11-15T11:33:06.360Z,3.00
2022-11-15T11:35:57.022Z,5.87
2022-11-15T11:38:47.492Z,3.07
2022-11-15T11:41:55.314Z,3.10
2022-11-15T11:44:52.332Z,3.38
2022-11-15T11:47:25.876Z,2.83
2022-11-15T11:50:23.873Z,3.37
2022-11-15T11:53:03.420Z,3.17
2022-11-15T11:55:42.224Z,2.77
2022-11-15T11:58:37.885Z,3.60
2022-11-15T12:01:23.131Z,3.40
2022-11-15T12:04:14.931Z,2.83
2022-11-15T12:07:15.056Z,3.40
2022-11-15T12:09:57.877Z,4.25
2022-11-15T12:12:38.614Z,3.40
2022-11-15T12:15:10.402Z,3.10
2022-11-15T12:17:42.844Z,3.33
2022-11-15T12:20:19.918Z,3.17
2022-11-15T12:23:02.230Z,3.90
2022-11-15T12:26:03.973Z,2.97
2022-11-15T12:29:06.375Z,6.40
2022-11-15T12:31:46.135Z,4.50
2022-11-15T12:34:21.332Z,3.87
2022-11-15T12:36:54.158Z,2.80
2022-11-15T12:40:04.489Z,5.17
2022-11-15T12:42:44.047Z,3.00
2022-11-15T12:45:40.331Z,3.43
2022-11-15T12:48:21.894Z,3.77
2022-11-15T12:50:58.964Z,3.10
2022-11-15T12:53:35.339Z,4.47
2022-11-15T12:56:13.210Z,3.90
2022-11-15T12:59:03.330Z,3.97
2022-11-15T13:01:36.221Z,3.20
2022-11-15T13:04:22.297Z,5.00
2022-11-15T13:07:00.954Z,3.07
2022-11-15T13:09:38.634Z,3.20
2022-11-15T13:12:28.876Z,4.23
2022-11-15T13:15:03.039Z,3.40
2022-11-15T13:17:38.688Z,4.13
2022-11-15T13:20:16.899Z,3.77
2022-11-15T13:22:55.303Z,4.40
2022-11-15T13:25:51.821Z,3.77
2022-11-15T13:28:29.336Z,4.97
2022-11-15T13:31:15.037Z,3.50
2022-11-15T13:33:47.253Z,4.17
2022-11-15T13:36:36.393Z,3.80
2022-11-15T13:39:40.805Z,4.60
2022-11-15T13:42:22.778Z,4.90
2022-11-15T13:44:59.811Z,5.90
2022-11-15T13:47:32.965Z,10.77
2022-11-15T13:50:12.084Z,12.67
2022-11-15T13:52:46.631Z,10.83
2022-11-15T13:55:26.922Z,7.70
2022-11-15T13:58:01.805Z,5.27
2022-11-15T14:00:46.071Z,6.83
2022-11-15T14:03:26.610Z,6.03
2022-11-15T14:06:16.029Z,6.93
2022-11-15T14:09:13.732Z,5.60
2022-11-15T14:11:54.255Z,4.53
2022-11-15T14:14:30.367Z,6.07
2022-11-15T14:17:02.215Z,5.27
2022-11-15T14:19:36.421Z,5.17
2022-11-15T14:22:17.913Z,4.00
2022-11-15T14:25:27.963Z,5.63
2022-11-15T14:28:41.362Z,4.37
2022-11-15T14:31:18.277Z,5.40
2022-11-15T14:33:50.517Z,7.33
2022-11-15T14:36:22.398Z,5.77
2022-11-15T14:38:55.225Z,5.50
2022-11-15T14:41:27.459Z,7.33
2022-11-15T14:43:59.174Z,6.20
2022-11-15T14:46:31.489Z,8.27
2022-11-15T14:49:03.930Z,4.83
2022-11-15T14:51:37.023Z,5.70
2022-11-15T14:54:11.452Z,7.90
2022-11-15T14:57:06.172Z,6.53
2022-11-15T14:59:39.190Z,13.70
2022-11-15T15:02:25.952Z,6.80
2022-11-15T15:05:02.009Z,6.80
2022-11-15T15:07:34.131Z,6.80
2022-11-15T15:10:38.505Z,6.50
2022-11-15T15:13:00.984Z,12.00
2022-11-15T15:15:35.764Z,7.37
2022-11-15T15:18:09.411Z,6.23
2022-11-15T15:20:42.881Z,6.93
2022-11-15T15:23:19.785Z,8.27
2022-11-15T15:25:51.564Z,6.77
2022-11-15T15:28:23.348Z,9.20
2022-11-15T15:30:56.033Z,8.17
2022-11-15T15:33:28.800Z,8.17
2022-11-15T15:36:00.558Z,6.40
2022-11-15T15:38:32.460Z,7.03
2022-11-15T15:41:04.558Z,6.77
2022-11-15T15:43:36.368Z,9.13
2022-11-15T15:46:26.302Z,9.00
2022-11-15T15:48:58.588Z,9.67
2022-11-15T15:51:31.122Z,8.53
2022-11-15T15:54:02.902Z,10.57
2022-11-15T15:56:34.572Z,9.63
2022-11-15T15:59:06.610Z,11.80
2022-11-15T16:01:38.347Z,6.23
2022-11-15T16:04:10.286Z,7.17
2022-11-15T16:06:45.813Z,7.50
2022-11-15T16:09:20.518Z,6.60
2022-11-15T16:11:53.335Z,11.03
2022-11-15T16:14:26.238Z,6.73
2022-11-15T16:16:57.933Z,8.60
2022-11-15T16:19:30.210Z,7.17
2022-11-15T16:22:01.901Z,6.40
2022-11-15T16:24:33.933Z,5.87
2022-11-15T16:27:05.759Z,6.47
2022-11-15T16:29:37.432Z,6.47
2022-11-15T16:32:09.554Z,6.53
2022-11-15T16:34:46.145Z,8.70
2022-11-15T16:37:24.089Z,7.90
2022-11-15T16:40:00.889Z,9.40
2022-11-15T16:42:32.928Z,11.53
2022-11-15T16:45:04.971Z,7.47
2022-11-15T16:47:36.752Z,7.40
2022-11-15T16:50:19.549Z,6.13
2022-11-15T16:52:56.028Z,5.83
2022-11-15T16:55:29.490Z,5.73
2022-11-15T16:58:01.874Z,7.60
2022-11-15T17:00:33.591Z,5.60
2022-11-15T17:03:06.042Z,7.07
2022-11-15T17:05:37.729Z,7.00
2022-11-15T17:08:09.451Z,7.10
2022-11-15T17:10:42.172Z,6.73
2022-11-15T17:13:14.374Z,6.10
2022-11-15T17:15:46.095Z,9.33
2022-11-15T17:18:17.882Z,7.47
2022-11-15T17:20:49.657Z,6.33
2022-11-15T17:23:21.338Z,7.47
2022-11-15T17:26:23.652Z,6.60
2022-11-15T17:28:58.137Z,7.13
2022-11-15T17:31:31.288Z,6.10
2022-11-15T17:34:05.244Z,7.90
2022-11-15T17:36:37.095Z,9.67
2022-11-15T17:39:09.076Z,8.47
2022-11-15T17:41:40.881Z,7.53
2022-11-15T17:44:13.697Z,10.37
2022-11-15T17:46:55.536Z,6.13
2022-11-15T17:49:29.492Z,7.90
2022-11-15T17:52:01.601Z,7.47
2022-11-15T17:54:34.398Z,10.27
2022-11-15T17:57:06.649Z,7.25
2022-11-15T17:59:39.565Z,6.63
2022-11-15T18:02:11.574Z,6.83
2022-11-15T18:04:43.450Z,8.80
2022-11-15T18:07:15.231Z,6.57
2022-11-15T18:09:47.204Z,8.17
2022-11-15T18:12:19.755Z,11.40
2022-11-15T18:14:51.435Z,7.63
2022-11-15T18:17:23.816Z,7.40
2022-11-15T18:19:55.603Z,15.30
2022-11-15T18:22:27.296Z,9.77
2022-11-15T18:25:00.658Z,9.70
2022-11-15T18:27:33.176Z,8.03
2022-11-15T18:30:07.970Z,9.40
2022-11-15T18:32:40.716Z,9.97
2022-11-15T18:35:14.159Z,9.77
2022-11-15T18:37:47.181Z,10.03
2022-11-15T18:40:21.393Z,11.17
2022-11-15T18:42:54.996Z,9.60
2022-11-15T18:45:28.594Z,12.27
2022-11-15T18:48:00.342Z,8.47
2022-11-15T18:50:32.025Z,12.17
2022-11-15T18:53:04.746Z,9.60
2022-11-15T18:55:37.496Z,10.60
2022-11-15T18:58:09.318Z,9.87
2022-11-15T19:00:41.092Z,11.30
2022-11-15T19:03:13.717Z,9.70
2022-11-15T19:05:45.564Z,10.30
2022-11-15T19:08:18.369Z,10.53
2022-11-15T19:10:50.541Z,9.67
2022-11-15T19:13:23.858Z,12.20
2022-11-15T19:16:00.113Z,10.37
2022-11-15T19:18:32.782Z,15.83
2022-11-15T19:21:07.225Z,13.30
2022-11-15T19:23:42.203Z,15.03
2022-11-15T19:26:15.993Z,15.80
2022-11-15T19:28:52.546Z,14.83
2022-11-15T19:31:26.244Z,14.90
2022-11-15T19:34:05.985Z,12.43
2022-11-15T19:36:45.115Z,15.10
2022-11-15T19:39:21.290Z,15.83
2022-11-15T19:41:54.329Z,13.07
2022-11-15T19:44:27.222Z,11.53
2022-11-15T19:46:58.967Z,12.27
2022-11-15T19:49:30.615Z,12.23
2022-11-15T19:52:03.408Z,15.40
2022-11-15T19:54:35.166Z,16.50
2022-11-15T19:57:10.291Z,16.13
2022-11-15T19:59:42.014Z,23.90
2022-11-15T20:02:13.971Z,20.50
2022-11-15T20:04:45.833Z,16.10
2022-11-15T20:07:20.540Z,23.27
2022-11-15T20:09:52.558Z,20.40
2022-11-15T20:12:24.233Z,17.53
2022-11-15T20:14:55.895Z,18.00
2022-11-15T20:17:27.661Z,18.13
2022-11-15T20:20:01.008Z,21.07
2022-11-15T20:22:35.305Z,14.50
2022-11-15T20:25:07.220Z,12.97
2022-11-15T20:27:38.932Z,15.10
2022-11-15T20:30:11.517Z,16.53
2022-11-15T20:32:43.328Z,14.50
2022-11-15T20:35:15.305Z,14.43
2022-11-15T20:37:48.304Z,15.23
2022-11-15T20:40:20.566Z,15.87
2022-11-15T20:42:54.122Z,13.87
2022-11-15T20:45:25.826Z,12.40
2022-11-15T20:47:58.925Z,10.90
2022-11-15T20:50:45.381Z,13.93
2022-11-15T20:53:19.786Z,13.17
2022-11-15T20:55:52.379Z,9.90
2022-11-15T20:58:28.085Z,8.87
2022-11-15T21:01:01.573Z,11.23
2022-11-15T21:03:35.421Z,9.83
2022-11-15T21:06:07.562Z,9.50
2022-11-15T21:08:57.757Z,10.07
2022-11-15T21:11:48.202Z,10.00
2022-11-15T21:14:25.748Z,9.97
2022-11-15T21:17:00.169Z,9.47
2022-11-15T21:19:35.806Z,7.37
2022-11-15T21:22:13.891Z,8.13
2022-11-15T21:24:45.702Z,7.53
2022-11-15T21:27:19.322Z,8.03
2022-11-15T21:29:52.161Z,8.47
2022-11-15T21:32:24.013Z,8.60
2022-11-15T21:34:56.781Z,7.83
2022-11-15T21:37:29.407Z,9.87
2022-11-15T21:40:01.789Z,7.70
2022-11-15T21:42:33.468Z,6.50
2022-11-15T21:45:05.921Z,7.83
2022-11-15T21:47:42.076Z,7.77
2022-11-15T21:50:17.658Z,7.30
2022-11-15T21:52:49.359Z,7.43
2022-11-15T21:55:21.174Z,8.00
2022-11-15T21:57:52.889Z,7.60
2022-11-15T22:00:43.233Z,7.18
2022-11-15T22:03:15.617Z,7.00
2022-11-15T22:05:47.289Z,8.27
2022-11-15T22:08:18.987Z,7.33
2022-11-15T22:10:51.145Z,8.70
2022-11-15T22:13:25.538Z,7.43
2022-11-15T22:15:57.334Z,10.13
2022-11-15T22:18:29.240Z,9.33
2022-11-15T22:21:01.027Z,8.50
2022-11-15T22:23:33.930Z,7.93
2022-11-15T22:26:06.581Z,7.50
2022-11-15T22:28:38.342Z,7.87
2022-11-15T22:31:10.957Z,8.40
2022-11-15T22:33:44.693Z,8.17
2022-11-15T22:36:16.583Z,7.93
2022-11-15T22:38:48.303Z,9.47
2022-11-15T22:41:21.072Z,11.43
2022-11-15T22:43:52.785Z,8.90
2022-11-15T22:46:28.083Z,9.37
2022-11-15T22:49:03.358Z,9.50
2022-11-15T22:51:35.655Z,10.65
2022-11-15T22:54:07.918Z,12.80
2022-11-15T22:56:39.801Z,10.53
2022-11-15T22:59:11.545Z,12.03
2022-11-15T23:01:43.253Z,13.23
2022-11-15T23:04:19.062Z,12.03
2022-11-15T23:06:52.504Z,10.30
2022-11-15T23:09:24.342Z,11.00
2022-11-15T23:12:15.002Z,16.20
2022-11-15T23:14:46.754Z,11.83
2022-11-15T23:17:19.585Z,11.00
2022-11-15T23:19:51.346Z,11.50
2022-11-15T23:22:41.931Z,10.77
2022-11-15T23:25:13.697Z,10.80
2022-11-15T23:27:45.488Z,9.07
2022-11-15T23:30:36.174Z,8.90
2022-11-15T23:33:32.797Z,7.90
2022-11-15T23:36:05.497Z,9.40
2022-11-15T23:38:37.894Z,10.57
2022-11-15T23:41:09.670Z,8.90
2022-11-15T23:43:41.587Z,12.77
2022-11-15T23:46:13.463Z,9.40
2022-11-15T23:48:45.316Z,10.07
2022-11-15T23:51:17.329Z,8.50
2022-11-15T23:53:50.533Z,8.40
2022-11-15T23:56:23.570Z,9.03
2022-11-15T23:58:55.524Z,7.10
